Strona główna
METAR-TAF:

METAR-TAF

Lotnisko :

Szanghaj-Pudong, Chiny

Port lotniczy Szanghaj-Pudong

Szerokość geograficzna: 31-07N, Długość geograficzna: 121-46E, wysokość: 4 m

Aktualna obserwacja pogody

Raport powstał 32 minut temu, godzina 05:00 UTC
Wiatr 10 kt od północny wschód, zmienny między północ i wschodnio-północny wschód
Temperatura 9°C
Wilgotność 76%
Ciśnienie 1024 hPa
Widzialność: 7000 m
Zachmurzenie całkowite na wysokości 2600 ft

METAR: ZSPD 180500Z 04005MPS 010V070 7000 OVC026 09/05 Q1024 NOSIG

czas: 13:32 (05:32 UTC)

Prognoza

Raport powstał 8 godziny i 20 minut temu, godzina 21:12 UTC
Prognoza ważna od 18 godzina 00 UTC do 18 godzina 24 UTC
Wiatr 8 kt od północny wschód
Widzialność: 3500 m
Przerywane chmury na wysokości 1300 ft
zamglenie

TAF: ZSPD 172112Z 1800/1824 05004MPS 3500 BR BKN013 TX11/1806Z TN06/1821Z

Obserwacja i prognoza pogody dla ponad 4000 lotnisk (raport METAR i TAF).

Dostępne stacje oznaczono żółtymi i czerwonymi punktami na mapie.

Najedź kursorem aby zobaczyć nazwę stacji.

Kliknij aby zobaczyć obserwacje i prognozy pogody.

Aby zmienić mapę: kliknij na zielony przycisk z czarnym krzyżykiem, aby powiększyć; na zielony przycisk z myślnikiem, aby pomniejszyć; na zielone strzałki, aby przejść do map sąsiednich.


METAR-TAF: